THA107 VTCC-VTBS
Flight info
| Callsign | THA107 |
|---|---|
| Flight time | 0h 55m |
| Altitude | 33000 |
| Route | PANTA2S PANTA BLAFF |
| Aircraft | A320/M-SDE3FGHIRWY/LB1 |
Departure
| Time | 2026-04-24 16:04 |
|---|---|
| Airport | Chiang Mai International Airport (VTCC) |
Arrival
| Time | 2026-04-24 16:59 |
|---|---|
| Airport | Suvarnabhumi Airport (VTBS) |
| Time | Latitude | Longitude | Altitude | Speed | Heading |
|---|---|---|---|---|---|
| 2026-04-24 15:30 | 18.76844 | 98.96738 | 1032 ft | 0 kts | 90° |
| 2026-04-24 15:55 | 18.76844 | 98.96733 | 1032 ft | 2 kts | 90° |
| 2026-04-24 15:56 | 18.76843 | 98.96714 | 1032 ft | 3 kts | 86° |
| 2026-04-24 15:56 | 18.76841 | 98.96692 | 1032 ft | 3 kts | 80° |
| 2026-04-24 15:56 | 18.76837 | 98.96672 | 1032 ft | 3 kts | 69° |
| 2026-04-24 15:56 | 18.76828 | 98.96654 | 1032 ft | 3 kts | 41° |
| 2026-04-24 15:57 | 18.76816 | 98.96646 | 1032 ft | 1 kts | 0° |
| 2026-04-24 15:57 | 18.76811 | 98.96646 | 1032 ft | 0 kts | 360° |
| 2026-04-24 15:59 | 18.76812 | 98.96646 | 1032 ft | 1 kts | 360° |
| 2026-04-24 15:59 | 18.76849 | 98.96646 | 1032 ft | 9 kts | 360° |
| 2026-04-24 15:59 | 18.76936 | 98.96647 | 1032 ft | 14 kts | 360° |
| 2026-04-24 15:59 | 18.77040 | 98.96624 | 1032 ft | 17 kts | 333° |
| 2026-04-24 16:00 | 18.77123 | 98.96546 | 1032 ft | 15 kts | 305° |
| 2026-04-24 16:00 | 18.77227 | 98.96518 | 1032 ft | 18 kts | 359° |
| 2026-04-24 16:00 | 18.77361 | 98.96519 | 1032 ft | 21 kts | 0° |
| 2026-04-24 16:00 | 18.77515 | 98.96519 | 1032 ft | 23 kts | 0° |
| 2026-04-24 16:01 | 18.77683 | 98.96520 | 1032 ft | 25 kts | 0° |
| 2026-04-24 16:01 | 18.77865 | 98.96520 | 1032 ft | 27 kts | 0° |
| 2026-04-24 16:01 | 18.78058 | 98.96520 | 1032 ft | 24 kts | 0° |
| 2026-04-24 16:01 | 18.78175 | 98.96480 | 1032 ft | 19 kts | 329° |
| 2026-04-24 16:02 | 18.78293 | 98.96406 | 1032 ft | 21 kts | 329° |
| 2026-04-24 16:02 | 18.78363 | 98.96325 | 1032 ft | 15 kts | 261° |
| 2026-04-24 16:02 | 18.78291 | 98.96294 | 1032 ft | 8 kts | 178° |
| 2026-04-24 16:02 | 18.78274 | 98.96293 | 1032 ft | 0 kts | 181° |
| 2026-04-24 16:03 | 18.78257 | 98.96293 | 1032 ft | 9 kts | 181° |
| 2026-04-24 16:03 | 18.77958 | 98.96291 | 1032 ft | 78 kts | 180° |
| 2026-04-24 16:03 | 18.77211 | 98.96289 | 1032 ft | 133 kts | 180° |
| 2026-04-24 16:03 | 18.76140 | 98.96288 | 1126 ft | 167 kts | 181° |
| 2026-04-24 16:04 | 18.75004 | 98.96280 | 1787 ft | 164 kts | 181° |
| 2026-04-24 16:04 | 18.73860 | 98.96275 | 2366 ft | 165 kts | 180° |
| 2026-04-24 16:04 | 18.72675 | 98.96272 | 2631 ft | 183 kts | 180° |
| 2026-04-24 16:04 | 18.71324 | 98.96270 | 2820 ft | 205 kts | 180° |
| 2026-04-24 16:05 | 18.68120 | 98.96261 | 3361 ft | 254 kts | 180° |
| 2026-04-24 16:05 | 18.66307 | 98.96257 | 4027 ft | 264 kts | 180° |
| 2026-04-24 16:06 | 18.62605 | 98.96247 | 5713 ft | 269 kts | 180° |
| 2026-04-24 16:06 | 18.60725 | 98.96244 | 6535 ft | 272 kts | 180° |
| 2026-04-24 16:06 | 18.56897 | 98.96238 | 7979 ft | 283 kts | 180° |
| 2026-04-24 16:07 | 18.54907 | 98.96234 | 8708 ft | 288 kts | 180° |
| 2026-04-24 16:07 | 18.52881 | 98.96305 | 9402 ft | 295 kts | 172° |
| 2026-04-24 16:07 | 18.49033 | 98.98040 | 10334 ft | 322 kts | 140° |
| 2026-04-24 16:08 | 18.47457 | 98.99824 | 10475 ft | 345 kts | 127° |
| 2026-04-24 16:08 | 18.44339 | 99.04023 | 10949 ft | 377 kts | 128° |
| 2026-04-24 16:09 | 18.41073 | 99.08366 | 12088 ft | 384 kts | 128° |
| 2026-04-24 16:09 | 18.39396 | 99.10579 | 12667 ft | 389 kts | 128° |
| 2026-04-24 16:09 | 18.37699 | 99.12814 | 13224 ft | 393 kts | 128° |
| 2026-04-24 16:09 | 18.35984 | 99.15079 | 13763 ft | 397 kts | 128° |
| 2026-04-24 16:10 | 18.30754 | 99.22013 | 15254 ft | 408 kts | 128° |
| 2026-04-24 16:11 | 18.27217 | 99.26694 | 15870 ft | 413 kts | 129° |
| 2026-04-24 16:11 | 18.25419 | 99.29051 | 15899 ft | 413 kts | 131° |
| 2026-04-24 16:11 | 18.23365 | 99.31149 | 15898 ft | 412 kts | 142° |
| 2026-04-24 16:12 | 18.18293 | 99.33939 | 16566 ft | 415 kts | 161° |
| 2026-04-24 16:12 | 18.15571 | 99.34979 | 17063 ft | 418 kts | 161° |
| 2026-04-24 16:12 | 18.10072 | 99.37100 | 18049 ft | 424 kts | 161° |
| 2026-04-24 16:13 | 18.07332 | 99.38156 | 18455 ft | 427 kts | 161° |
| 2026-04-24 16:13 | 18.01710 | 99.40312 | 19213 ft | 433 kts | 162° |
| 2026-04-24 16:14 | 17.96001 | 99.42487 | 19990 ft | 439 kts | 162° |
| 2026-04-24 16:14 | 17.93120 | 99.43585 | 20374 ft | 442 kts | 162° |
| 2026-04-24 16:14 | 17.87291 | 99.45804 | 21130 ft | 449 kts | 162° |
| 2026-04-24 16:15 | 17.85343 | 99.46545 | 21362 ft | 451 kts | 162° |
| 2026-04-24 16:15 | 17.78434 | 99.49171 | 22157 ft | 458 kts | 162° |
| 2026-04-24 16:16 | 17.72406 | 99.51466 | 22808 ft | 464 kts | 162° |
| 2026-04-24 16:16 | 17.69360 | 99.52627 | 23116 ft | 467 kts | 162° |
| 2026-04-24 16:17 | 17.60168 | 99.56121 | 23971 ft | 474 kts | 162° |
| 2026-04-24 16:17 | 17.53943 | 99.58485 | 24515 ft | 478 kts | 162° |
| 2026-04-24 16:18 | 17.47672 | 99.60872 | 25073 ft | 481 kts | 162° |
| 2026-04-24 16:18 | 17.41359 | 99.63265 | 25615 ft | 484 kts | 162° |
| 2026-04-24 16:18 | 17.38185 | 99.64467 | 25881 ft | 486 kts | 162° |
| 2026-04-24 16:19 | 17.31798 | 99.66886 | 26392 ft | 490 kts | 162° |
| 2026-04-24 16:19 | 17.28632 | 99.68086 | 26653 ft | 492 kts | 162° |
| 2026-04-24 16:20 | 17.22207 | 99.70519 | 27402 ft | 490 kts | 162° |
| 2026-04-24 16:20 | 17.15803 | 99.72940 | 28201 ft | 489 kts | 162° |
| 2026-04-24 16:20 | 17.12607 | 99.74145 | 28654 ft | 487 kts | 162° |
| 2026-04-24 16:21 | 17.06292 | 99.76521 | 29496 ft | 486 kts | 162° |
| 2026-04-24 16:21 | 17.03100 | 99.77725 | 29805 ft | 488 kts | 162° |
| 2026-04-24 16:21 | 16.99907 | 99.78933 | 30158 ft | 488 kts | 162° |
| 2026-04-24 16:22 | 16.96719 | 99.80139 | 30512 ft | 487 kts | 162° |
| 2026-04-24 16:22 | 16.90352 | 99.82546 | 31273 ft | 486 kts | 162° |
| 2026-04-24 16:22 | 16.87177 | 99.83743 | 31662 ft | 485 kts | 162° |
| 2026-04-24 16:23 | 16.83998 | 99.84940 | 32010 ft | 485 kts | 162° |
| 2026-04-24 16:23 | 16.80828 | 99.86131 | 32378 ft | 485 kts | 162° |
| 2026-04-24 16:23 | 16.77698 | 99.87306 | 32741 ft | 484 kts | 162° |
| 2026-04-24 16:24 | 16.71373 | 99.89684 | 32870 ft | 482 kts | 162° |
| 2026-04-24 16:24 | 16.65062 | 99.92057 | 32875 ft | 482 kts | 162° |
| 2026-04-24 16:25 | 16.58756 | 99.94425 | 32868 ft | 482 kts | 162° |
| 2026-04-24 16:25 | 16.52444 | 99.96791 | 32865 ft | 482 kts | 162° |
| 2026-04-24 16:26 | 16.43026 | 100.00321 | 32871 ft | 482 kts | 162° |
| 2026-04-24 16:27 | 16.33553 | 100.03880 | 32870 ft | 483 kts | 162° |
| 2026-04-24 16:27 | 16.27231 | 100.06246 | 32864 ft | 483 kts | 162° |
| 2026-04-24 16:28 | 16.20948 | 100.08596 | 32873 ft | 483 kts | 162° |
| 2026-04-24 16:28 | 16.11459 | 100.12141 | 32875 ft | 483 kts | 162° |
| 2026-04-24 16:29 | 16.05139 | 100.14493 | 32873 ft | 482 kts | 162° |
| 2026-04-24 16:30 | 15.92557 | 100.19194 | 32874 ft | 482 kts | 162° |
| 2026-04-24 16:30 | 15.86245 | 100.21546 | 32873 ft | 483 kts | 162° |
| 2026-04-24 16:31 | 15.79914 | 100.23901 | 32872 ft | 483 kts | 162° |
| 2026-04-24 16:31 | 15.73583 | 100.26255 | 32870 ft | 483 kts | 161° |
| 2026-04-24 16:32 | 15.67272 | 100.28607 | 32874 ft | 482 kts | 161° |
| 2026-04-24 16:32 | 15.60962 | 100.30957 | 32873 ft | 481 kts | 161° |
| 2026-04-24 16:33 | 15.54652 | 100.33292 | 32874 ft | 481 kts | 161° |
| 2026-04-24 16:33 | 15.48345 | 100.35629 | 32873 ft | 481 kts | 161° |
| 2026-04-24 16:34 | 15.42034 | 100.37967 | 32873 ft | 481 kts | 161° |
| 2026-04-24 16:34 | 15.38873 | 100.39137 | 32728 ft | 485 kts | 161° |
| 2026-04-24 16:34 | 15.35695 | 100.40314 | 32478 ft | 486 kts | 161° |
| 2026-04-24 16:35 | 15.32504 | 100.41494 | 32238 ft | 487 kts | 161° |
| 2026-04-24 16:35 | 15.29310 | 100.42677 | 31996 ft | 488 kts | 160° |
| 2026-04-24 16:35 | 15.26114 | 100.43863 | 31756 ft | 489 kts | 160° |
| 2026-04-24 16:35 | 15.22953 | 100.45038 | 31519 ft | 489 kts | 160° |
| 2026-04-24 16:36 | 15.19748 | 100.46227 | 30642 ft | 492 kts | 160° |
| 2026-04-24 16:36 | 15.16542 | 100.47415 | 29367 ft | 489 kts | 160° |
| 2026-04-24 16:36 | 15.13356 | 100.48595 | 28154 ft | 482 kts | 161° |
| 2026-04-24 16:36 | 15.10229 | 100.49752 | 26965 ft | 474 kts | 161° |
| 2026-04-24 16:37 | 15.07141 | 100.50894 | 25780 ft | 470 kts | 161° |
| 2026-04-24 16:37 | 15.04066 | 100.52032 | 24646 ft | 470 kts | 161° |
| 2026-04-24 16:37 | 15.01981 | 100.52801 | 23904 ft | 471 kts | 161° |
| 2026-04-24 16:37 | 14.97869 | 100.54313 | 22293 ft | 477 kts | 161° |
| 2026-04-24 16:38 | 14.94736 | 100.55467 | 21200 ft | 477 kts | 161° |
| 2026-04-24 16:38 | 14.91578 | 100.56633 | 20231 ft | 474 kts | 161° |
| 2026-04-24 16:38 | 14.88480 | 100.57778 | 19263 ft | 472 kts | 161° |
| 2026-04-24 16:38 | 14.85417 | 100.58911 | 18752 ft | 460 kts | 160° |
| 2026-04-24 16:39 | 14.82483 | 100.59996 | 18639 ft | 438 kts | 160° |
| 2026-04-24 16:39 | 14.79711 | 100.61018 | 18524 ft | 419 kts | 160° |
| 2026-04-24 16:39 | 14.77018 | 100.62009 | 18412 ft | 403 kts | 160° |
| 2026-04-24 16:39 | 14.74426 | 100.62960 | 18253 ft | 389 kts | 160° |
| 2026-04-24 16:40 | 14.71901 | 100.63885 | 17864 ft | 382 kts | 161° |
| 2026-04-24 16:40 | 14.69402 | 100.64743 | 17516 ft | 375 kts | 162° |
| 2026-04-24 16:40 | 14.66911 | 100.65527 | 17185 ft | 373 kts | 163° |
| 2026-04-24 16:40 | 14.64425 | 100.66270 | 16854 ft | 371 kts | 164° |
| 2026-04-24 16:41 | 14.61951 | 100.67000 | 16523 ft | 369 kts | 164° |
| 2026-04-24 16:41 | 14.59484 | 100.67734 | 16188 ft | 368 kts | 163° |
| 2026-04-24 16:41 | 14.57038 | 100.68471 | 15872 ft | 363 kts | 163° |
| 2026-04-24 16:41 | 14.54657 | 100.69198 | 15742 ft | 350 kts | 163° |
| 2026-04-24 16:42 | 14.52365 | 100.69903 | 15620 ft | 339 kts | 163° |
| 2026-04-24 16:42 | 14.50127 | 100.70591 | 15362 ft | 333 kts | 163° |
| 2026-04-24 16:42 | 14.47916 | 100.71269 | 15027 ft | 330 kts | 163° |
| 2026-04-24 16:42 | 14.45693 | 100.71824 | 14687 ft | 328 kts | 173° |
| 2026-04-24 16:43 | 14.43421 | 100.71844 | 14351 ft | 326 kts | 187° |
| 2026-04-24 16:43 | 14.41210 | 100.71351 | 14016 ft | 325 kts | 194° |
| 2026-04-24 16:43 | 14.39025 | 100.70769 | 13681 ft | 323 kts | 194° |
| 2026-04-24 16:43 | 14.36853 | 100.70196 | 13312 ft | 322 kts | 194° |
| 2026-04-24 16:44 | 14.34688 | 100.69629 | 12966 ft | 320 kts | 194° |
| 2026-04-24 16:44 | 14.32538 | 100.69064 | 12586 ft | 319 kts | 194° |
| 2026-04-24 16:44 | 14.30396 | 100.68499 | 12261 ft | 316 kts | 194° |
| 2026-04-24 16:44 | 14.28284 | 100.67942 | 12030 ft | 311 kts | 193° |
| 2026-04-24 16:45 | 14.26192 | 100.67392 | 11799 ft | 309 kts | 194° |
| 2026-04-24 16:45 | 14.24118 | 100.66847 | 11525 ft | 307 kts | 194° |
| 2026-04-24 16:45 | 14.22053 | 100.66304 | 11242 ft | 305 kts | 194° |
| 2026-04-24 16:45 | 14.20001 | 100.65762 | 10964 ft | 304 kts | 193° |
| 2026-04-24 16:46 | 14.17957 | 100.65220 | 10680 ft | 302 kts | 193° |
| 2026-04-24 16:46 | 14.15930 | 100.64685 | 10402 ft | 300 kts | 194° |
| 2026-04-24 16:46 | 14.13911 | 100.64154 | 10129 ft | 298 kts | 193° |
| 2026-04-24 16:46 | 14.12578 | 100.63804 | 9942 ft | 297 kts | 193° |
| 2026-04-24 16:47 | 14.10581 | 100.63278 | 9662 ft | 295 kts | 194° |
| 2026-04-24 16:47 | 14.08625 | 100.62761 | 9532 ft | 286 kts | 194° |
| 2026-04-24 16:47 | 14.06728 | 100.62260 | 9405 ft | 277 kts | 193° |
| 2026-04-24 16:47 | 14.04885 | 100.61774 | 9297 ft | 269 kts | 193° |
| 2026-04-24 16:48 | 14.03094 | 100.61302 | 9133 ft | 263 kts | 193° |
| 2026-04-24 16:48 | 14.01312 | 100.61119 | 9051 ft | 256 kts | 169° |
| 2026-04-24 16:48 | 13.99692 | 100.61815 | 8955 ft | 254 kts | 141° |
| 2026-04-24 16:48 | 13.98627 | 100.63239 | 8657 ft | 253 kts | 110° |
| 2026-04-24 16:49 | 13.98140 | 100.64975 | 8371 ft | 252 kts | 104° |
| 2026-04-24 16:49 | 13.97694 | 100.66715 | 8089 ft | 251 kts | 105° |
| 2026-04-24 16:49 | 13.97247 | 100.68453 | 7808 ft | 250 kts | 105° |
| 2026-04-24 16:49 | 13.97097 | 100.70219 | 7531 ft | 250 kts | 79° |
| 2026-04-24 16:50 | 13.97514 | 100.71340 | 7335 ft | 250 kts | 58° |
| 2026-04-24 16:50 | 13.99335 | 100.72723 | 6945 ft | 252 kts | 16° |
| 2026-04-24 16:50 | 14.01049 | 100.73126 | 6649 ft | 253 kts | 15° |
| 2026-04-24 16:50 | 14.02616 | 100.73882 | 6347 ft | 249 kts | 44° |
| 2026-04-24 16:51 | 14.03555 | 100.75336 | 6054 ft | 245 kts | 74° |
| 2026-04-24 16:51 | 14.03646 | 100.77052 | 5779 ft | 241 kts | 102° |
| 2026-04-24 16:51 | 14.03217 | 100.78710 | 5511 ft | 239 kts | 105° |
| 2026-04-24 16:51 | 14.02763 | 100.80347 | 5245 ft | 237 kts | 110° |
| 2026-04-24 16:52 | 14.01973 | 100.81817 | 4986 ft | 235 kts | 129° |
| 2026-04-24 16:52 | 14.00750 | 100.82917 | 4715 ft | 235 kts | 148° |
| 2026-04-24 16:52 | 13.99229 | 100.83528 | 4389 ft | 237 kts | 168° |
| 2026-04-24 16:52 | 13.97586 | 100.83562 | 4099 ft | 237 kts | 188° |
| 2026-04-24 16:53 | 13.95995 | 100.83157 | 3988 ft | 233 kts | 192° |
| 2026-04-24 16:53 | 13.94476 | 100.82759 | 3990 ft | 217 kts | 192° |
| 2026-04-24 16:53 | 13.93062 | 100.82389 | 3993 ft | 202 kts | 192° |
| 2026-04-24 16:53 | 13.91735 | 100.82040 | 3995 ft | 194 kts | 192° |
| 2026-04-24 16:54 | 13.90433 | 100.81698 | 3978 ft | 193 kts | 192° |
| 2026-04-24 16:54 | 13.89135 | 100.81357 | 3802 ft | 192 kts | 192° |
| 2026-04-24 16:54 | 13.87847 | 100.81017 | 3582 ft | 191 kts | 192° |
| 2026-04-24 16:54 | 13.86561 | 100.80679 | 3348 ft | 190 kts | 192° |
| 2026-04-24 16:55 | 13.85294 | 100.80345 | 3121 ft | 191 kts | 193° |
| 2026-04-24 16:55 | 13.84001 | 100.80005 | 2892 ft | 187 kts | 193° |
| 2026-04-24 16:55 | 13.82788 | 100.79685 | 2642 ft | 178 kts | 193° |
| 2026-04-24 16:55 | 13.81620 | 100.79378 | 2416 ft | 168 kts | 193° |
| 2026-04-24 16:56 | 13.80523 | 100.79089 | 2231 ft | 157 kts | 193° |
| 2026-04-24 16:56 | 13.79498 | 100.78819 | 2020 ft | 148 kts | 193° |
| 2026-04-24 16:56 | 13.78511 | 100.78560 | 1832 ft | 145 kts | 193° |
| 2026-04-24 16:56 | 13.77545 | 100.78306 | 1653 ft | 143 kts | 193° |
| 2026-04-24 16:57 | 13.76603 | 100.78058 | 1483 ft | 138 kts | 193° |
| 2026-04-24 16:57 | 13.75678 | 100.77815 | 1302 ft | 137 kts | 194° |
| 2026-04-24 16:57 | 13.74762 | 100.77574 | 1130 ft | 136 kts | 194° |
| 2026-04-24 16:57 | 13.73841 | 100.77334 | 964 ft | 137 kts | 194° |
| 2026-04-24 16:58 | 13.72921 | 100.77092 | 807 ft | 136 kts | 193° |
| 2026-04-24 16:58 | 13.72007 | 100.76852 | 620 ft | 135 kts | 194° |
| 2026-04-24 16:58 | 13.71101 | 100.76613 | 432 ft | 135 kts | 194° |
| 2026-04-24 16:58 | 13.70195 | 100.76375 | 288 ft | 134 kts | 193° |
| 2026-04-24 16:59 | 13.69301 | 100.76139 | 97 ft | 132 kts | 193° |
| 2026-04-24 16:59 | 13.68452 | 100.75916 | 15 ft | 111 kts | 194° |
| 2026-04-24 16:59 | 13.67609 | 100.75675 | 12 ft | 31 kts | 209° |
| 2026-04-24 17:00 | 13.67468 | 100.75558 | 13 ft | 20 kts | 225° |
| 2026-04-24 17:00 | 13.67633 | 100.75509 | 14 ft | 23 kts | 14° |
| 2026-04-24 17:00 | 13.67794 | 100.75552 | 13 ft | 25 kts | 15° |
| 2026-04-24 17:01 | 13.68165 | 100.75649 | 13 ft | 29 kts | 14° |
| 2026-04-24 17:01 | 13.68351 | 100.75698 | 15 ft | 27 kts | 14° |
| 2026-04-24 17:02 | 13.68729 | 100.75797 | 14 ft | 27 kts | 14° |
| 2026-04-24 17:02 | 13.68917 | 100.75847 | 13 ft | 29 kts | 14° |
| 2026-04-24 17:02 | 13.69061 | 100.75883 | 15 ft | 13 kts | 5° |
| 2026-04-24 17:02 | 13.69118 | 100.75814 | 13 ft | 15 kts | 284° |
| 2026-04-24 17:03 | 13.69225 | 100.75626 | 13 ft | 18 kts | 12° |
| 2026-04-24 17:03 | 13.69353 | 100.75660 | 13 ft | 20 kts | 14° |
| 2026-04-24 17:03 | 13.69486 | 100.75695 | 15 ft | 17 kts | 14° |
| 2026-04-24 17:04 | 13.69591 | 100.75723 | 13 ft | 11 kts | 14° |
| 2026-04-24 17:04 | 13.69658 | 100.75645 | 15 ft | 5 kts | 284° |
| 2026-04-24 17:04 | 13.69660 | 100.75635 | 13 ft | 1 kts | 284° |
| 2026-04-24 17:05 | 13.69661 | 100.75634 | 13 ft | 0 kts | 284° |